Main page
Satellite images 10-day forecastsClimateMarine weather Cyclones Lightning AirportsFAQ Newsletter About
Weather : Europe Africa North America South America Asia Australia-Oceania Others
Languages Contact

Munich, Germany

Munich Airport

latitude: 48-21N, longitude: 011-47E, elevation: 453 m


METAR: EDDM 301150Z 27006KT 220V340 CAVOK 20/02 Q1016 NOSIG
TAF: EDDM 301100Z 3012/3118 27007KT CAVOK BECMG 3017/3019 VRB03KT BECMG 3107/3109 07007KT

Time: 14:05 (12:05 UTC)

Current weather observation

The report was made 15 minutes ago, at 11:50 UTC
Wind 6 kt from the West, varying between Southwest and North/Northwest
Temperature 20°C
Humidity 30%
Pressure 1016 hPa
Visibility 10 km or more
no clouds below 1500 m and no cumulonimbus

Change units

Forecast

The report was made 1 hour and 5 minutes ago, at 11:00 UTC
Forecast valid from 30 at 12 UTC to 31 at 18 UTC
Wind 7 kt from the West
Visibility 10 km or more
no clouds below 1500 m and no cumulonimbus
Becoming
from 30 at 17 UTC to 30 at 19 UTC
Wind 3 kt from variable directions
Becoming
from 31 at 07 UTC to 31 at 09 UTC
Wind 7 kt from the East/Northeast
The information on this site is subject to a disclaimer
Weather : Europe Africa North America South America Asia Australia-Oceania Others
Satellite images 10-day forecastsClimateMarine weather Cyclones Lightning AirportsFAQ Languages Contact Newsletter About